Time;durP1;ratioP1;P1;durP2;ratioP2;P2;SDS_P1;SDS_P2;PMS_P1;PMS_P2;Temp;Humidity;BMP_temperature;BMP_pressure;BME280_temperature;BME280_humidity;BME280_pressure;Samples;Min_cycle;Max_cycle;Signal;HPM_P1;HPM_P2
2022/07/12 00:01:36;;;;;;;;;3.00;3.00;;;;;24.94;43.11;101934.06;5078187;28;69063;-67
2022/07/12 00:04:01;;;;;;;;;3.33;3.33;;;;;24.91;42.02;101927.06;5078753;27;57344;-67
2022/07/12 00:06:26;;;;;;;;;3.00;3.00;;;;;24.87;42.19;101931.03;5078386;27;64126;-67
2022/07/12 00:08:52;;;;;;;;;2.33;2.00;;;;;24.85;42.40;101937.63;5078788;27;56040;-67
2022/07/12 00:11:17;;;;;;;;;5.67;4.67;;;;;24.83;42.57;101931.50;5078398;27;60018;-67
2022/07/12 00:13:42;;;;;;;;;5.67;4.33;;;;;24.80;42.59;101932.63;5078424;27;63767;-67
2022/07/12 00:16:08;;;;;;;;;6.00;6.00;;;;;24.78;42.88;101931.91;5078117;27;67445;-67
2022/07/12 00:18:33;;;;;;;;;8.00;7.00;;;;;24.75;42.96;101932.19;5078736;27;46186;-67
2022/07/12 00:20:58;;;;;;;;;8.67;6.33;;;;;24.72;42.70;101935.22;5077702;27;71961;-67
2022/07/12 00:23:24;;;;;;;;;8.00;6.67;;;;;24.70;43.33;101940.78;5077891;27;67043;-68
2022/07/12 00:25:49;;;;;;;;;12.33;7.33;;;;;24.67;42.65;101943.78;5078630;27;54135;-68
2022/07/12 00:28:15;;;;;;;;;7.00;7.00;;;;;24.65;42.88;101942.22;5077838;27;72717;-69
2022/07/12 00:30:40;;;;;;;;;7.33;6.00;;;;;24.63;43.00;101936.00;5078277;27;45412;-68
2022/07/12 00:33:06;;;;;;;;;6.00;6.00;;;;;24.60;42.90;101935.31;5078807;27;45328;-69
2022/07/12 00:35:31;;;;;;;;;4.33;4.33;;;;;24.57;42.90;101934.72;5078047;27;69870;-68
2022/07/12 00:37:56;;;;;;;;;6.00;4.33;;;;;24.56;43.41;101933.00;5077725;27;71203;-67
2022/07/12 00:40:21;;;;;;;;;5.67;5.67;;;;;24.55;43.42;101928.59;5077742;27;70822;-68
2022/07/12 00:42:47;;;;;;;;;3.33;3.33;;;;;24.54;43.01;101932.31;5077857;27;65598;-69
2022/07/12 00:45:13;;;;;;;;;4.00;4.00;;;;;24.53;43.27;101928.72;5077644;28;69199;-68
2022/07/12 00:47:49;;;;;;;;;5.00;5.00;;;;;24.53;43.49;101930.59;5079389;28;45424;-68
2022/07/12 00:50:20;;;;;;;;;3.00;3.00;;;;;24.52;43.57;101928.84;5082036;28;45896;-68
2022/07/12 00:52:47;;;;;;;;;5.00;5.00;;;;;24.47;43.42;101921.13;5082250;27;45314;-68
2022/07/12 00:55:14;;;;;;;;;4.00;4.00;;;;;24.47;43.54;101920.25;5082040;27;45516;-69
2022/07/12 00:57:41;;;;;;;;;3.00;3.00;;;;;24.45;43.67;101921.25;5081687;27;45377;-68
2022/07/12 01:00:08;;;;;;;;;2.67;2.67;;;;;24.43;43.78;101917.84;5081931;28;45538;-69
2022/07/12 01:02:34;;;;;;;;;5.67;3.67;;;;;24.39;43.94;101918.25;5082009;27;45366;-68
2022/07/12 01:05:00;;;;;;;;;6.33;5.00;;;;;24.38;43.93;101913.81;5081845;27;45758;-68
2022/07/12 01:07:26;;;;;;;;;2.33;2.33;;;;;24.36;43.80;101915.81;5080774;27;74438;-69
2022/07/12 01:09:53;;;;;;;;;5.00;3.67;;;;;24.33;43.90;101916.13;5081726;27;45533;-68
2022/07/12 01:12:18;;;;;;;;;2.00;2.00;;;;;24.30;44.61;101922.69;5082344;27;45349;-68
2022/07/12 01:14:44;;;;;;;;;4.00;4.00;;;;;24.26;44.14;101924.81;5080463;28;45489;-68
2022/07/12 01:17:10;;;;;;;;;3.00;3.00;;;;;24.22;44.19;101920.66;5080220;28;47243;-68
2022/07/12 01:19:37;;;;;;;;;2.67;2.67;;;;;24.21;44.17;101921.66;5080382;28;45543;-68
2022/07/12 01:22:06;;;;;;;;;3.00;3.00;;;;;24.20;44.51;101919.09;5081661;27;45416;-68
2022/07/12 01:24:32;;;;;;;;;1.00;1.00;;;;;24.18;44.68;101921.06;5080464;28;45436;-69
2022/07/12 01:26:57;;;;;;;;;2.00;2.00;;;;;24.15;44.86;101913.22;5080316;28;68764;-68
2022/07/12 01:29:22;;;;;;;;;3.33;3.00;;;;;24.12;44.68;101911.63;5080088;28;45409;-68
2022/07/12 01:31:48;;;;;;;;;2.00;2.00;;;;;24.10;44.63;101910.91;5081812;27;45632;-68
2022/07/12 01:34:13;;;;;;;;;2.33;2.00;;;;;24.07;44.56;101905.75;5080788;27;67084;-68
2022/07/12 01:36:39;;;;;;;;;5.00;3.00;;;;;24.03;45.06;101898.88;5079439;28;73467;-68
2022/07/12 01:39:04;;;;;;;;;2.00;2.00;;;;;24.00;44.68;101900.00;5097680;27;45425;-68
2022/07/12 01:41:31;;;;;;;;;2.00;2.00;;;;;23.99;45.17;101902.84;5081170;27;58038;-68
2022/07/12 01:43:57;;;;;;;;;2.00;2.00;;;;;23.95;45.24;101897.69;5081509;27;45354;-68
2022/07/12 01:46:22;;;;;;;;;2.00;2.00;;;;;23.92;45.24;101902.53;5081372;27;45264;-68
2022/07/12 01:48:48;;;;;;;;;5.33;4.00;;;;;23.89;45.04;101906.34;5080693;27;66888;-68
2022/07/12 01:51:13;;;;;;;;;2.00;2.00;;;;;23.86;45.35;101908.50;5080776;27;59030;-68
2022/07/12 01:53:38;;;;;;;;;3.00;3.00;;;;;23.83;45.19;101920.50;5079439;28;69203;-68
2022/07/12 01:56:04;;;;;;;;;4.33;3.00;;;;;23.80;45.93;101915.34;5080751;27;70874;-68
2022/07/12 01:58:30;;;;;;;;;2.00;2.00;;;;;23.75;45.68;101917.59;5080717;27;52423;-68
2022/07/12 02:00:56;;;;;;;;;1.00;1.00;;;;;23.70;46.75;101915.31;5079780;27;64350;-69
2022/07/12 02:03:22;;;;;;;;;2.33;2.33;;;;;23.66;46.46;101916.56;5081149;27;45385;-68
2022/07/12 02:05:47;;;;;;;;;3.00;3.00;;;;;23.62;46.10;101917.81;5081675;27;45302;-68
2022/07/12 02:08:13;;;;;;;;;0.00;0.00;;;;;23.60;46.19;101909.81;5081661;27;45393;-68
2022/07/12 02:10:39;;;;;;;;;2.00;2.00;;;;;23.59;46.65;101909.97;5082085;27;45433;-68
2022/07/12 02:13:05;;;;;;;;;2.67;2.67;;;;;23.56;46.27;101913.81;5081703;27;45516;-69
2022/07/12 02:15:31;;;;;;;;;3.67;3.67;;;;;23.54;46.62;101910.34;5081774;27;45389;-69
2022/07/12 02:17:56;;;;;;;;;3.67;3.33;;;;;23.50;47.21;101914.34;5081351;27;45407;-69
2022/07/12 02:20:22;;;;;;;;;3.00;3.00;;;;;23.45;46.42;101913.88;5081743;27;45497;-69
2022/07/12 02:22:47;;;;;;;;;3.33;3.33;;;;;23.43;46.79;101908.59;5080739;27;61895;-69
2022/07/12 02:25:13;;;;;;;;;3.00;2.67;;;;;23.40;46.70;101908.00;5081398;27;45264;-68
2022/07/12 02:27:40;;;;;;;;;3.00;3.00;;;;;23.39;46.51;101911.72;5081123;27;51905;-69
2022/07/12 02:30:07;;;;;;;;;3.00;3.00;;;;;23.38;46.78;101915.44;5081488;28;45299;-69
2022/07/12 02:32:32;;;;;;;;;5.00;3.67;;;;;23.34;47.21;101909.41;5081266;27;45548;-70
2022/07/12 02:34:58;;;;;;;;;4.67;3.00;;;;;23.31;46.91;101914.22;5081067;27;52585;-70
2022/07/12 02:37:23;;;;;;;;;7.67;4.00;;;;;23.28;46.92;101913.53;5081008;27;45404;-69
2022/07/12 02:39:48;;;;;;;;;4.00;4.00;;;;;23.24;47.18;101916.63;5081491;27;45413;-69
2022/07/12 02:42:14;;;;;;;;;3.00;3.00;;;;;23.22;47.17;101915.88;5080537;27;63176;-69
2022/07/12 02:44:39;;;;;;;;;3.33;3.00;;;;;23.18;47.49;101915.31;5080352;27;69204;-69
2022/07/12 02:47:05;;;;;;;;;5.00;4.00;;;;;23.16;47.61;101930.84;5080894;27;45368;-68
2022/07/12 02:49:30;;;;;;;;;5.00;5.00;;;;;23.13;47.21;101922.94;5081385;27;45355;-68
2022/07/12 02:51:56;;;;;;;;;4.00;4.00;;;;;23.11;47.77;101927.63;5080313;27;64045;-68
2022/07/12 02:54:21;;;;;;;;;5.33;3.67;;;;;23.06;47.93;101929.88;5080814;27;45347;-68
2022/07/12 02:56:46;;;;;;;;;3.33;3.33;;;;;22.98;48.17;101930.53;5080091;27;70060;-68
2022/07/12 02:59:12;;;;;;;;;5.33;5.33;;;;;22.95;48.10;101923.53;5080121;27;64779;-68
2022/07/12 03:01:37;;;;;;;;;5.33;5.00;;;;;22.94;48.20;101926.38;5079677;28;67012;-69
2022/07/12 03:04:02;;;;;;;;;5.00;3.67;;;;;22.94;48.30;101931.78;5079965;27;72285;-68
2022/07/12 03:06:28;;;;;;;;;5.00;4.00;;;;;22.91;48.10;101934.78;5080881;27;45427;-69
2022/07/12 03:08:53;;;;;;;;;5.00;4.00;;;;;22.88;48.22;101922.34;5081105;27;45413;-69
2022/07/12 03:11:18;;;;;;;;;3.67;3.67;;;;;22.88;48.33;101924.16;5079844;27;63689;-69
2022/07/12 03:13:44;;;;;;;;;5.00;4.00;;;;;22.85;48.89;101930.72;5079979;27;70041;-69
2022/07/12 03:16:09;;;;;;;;;5.33;5.33;;;;;22.82;48.84;101933.69;5080718;27;45358;-69
2022/07/12 03:18:34;;;;;;;;;8.00;6.00;;;;;22.78;49.18;101932.25;5080748;27;45377;-69
2022/07/12 03:21:00;;;;;;;;;7.33;6.00;;;;;22.73;49.34;101932.63;5079725;27;65378;-69
2022/07/12 03:23:25;;;;;;;;;8.33;7.33;;;;;22.66;49.54;101930.53;5080102;27;45862;-69
2022/07/12 03:25:50;;;;;;;;;11.00;10.00;;;;;22.60;49.19;101927.34;5080107;27;53991;-69
2022/07/12 03:28:16;;;;;;;;;11.00;10.00;;;;;22.57;50.03;101930.34;5079503;27;67361;-69
2022/07/12 03:30:41;;;;;;;;;11.00;10.00;;;;;22.56;49.42;101930.47;5080164;27;45595;-69
2022/07/12 03:33:07;;;;;;;;;9.67;9.67;;;;;22.54;49.46;101927.00;5080102;27;49460;-69
2022/07/12 03:35:33;;;;;;;;;6.00;6.00;;;;;22.51;49.45;101917.28;5080514;27;45349;-70
2022/07/12 03:37:58;;;;;;;;;11.00;10.33;;;;;22.48;49.11;101924.84;5080151;27;45474;-69
2022/07/12 03:40:24;;;;;;;;;10.67;9.67;;;;;22.46;49.66;101938.50;5079885;27;58330;-71
2022/07/12 03:42:49;;;;;;;;;9.00;9.00;;;;;22.43;49.18;101936.06;5078704;28;50457;-69
2022/07/12 03:45:14;;;;;;;;;9.33;7.67;;;;;22.40;49.71;101931.75;5080320;27;45539;-70
2022/07/12 03:47:40;;;;;;;;;10.33;8.33;;;;;22.38;49.29;101941.00;5079220;28;66768;-69
2022/07/12 03:50:08;;;;;;;;;7.67;7.67;;;;;22.36;49.92;101942.94;5080352;27;45476;-68
2022/07/12 03:52:34;;;;;;;;;9.33;9.33;;;;;22.30;49.98;101947.00;5079801;27;46259;-70
2022/07/12 03:55:01;;;;;;;;;11.00;11.00;;;;;22.25;49.64;101943.81;5079764;27;45291;-70
2022/07/12 03:57:27;;;;;;;;;7.00;7.00;;;;;22.22;49.99;101950.34;5080199;27;45488;-69
2022/07/12 03:59:52;;;;;;;;;9.33;6.67;;;;;22.19;50.28;101950.59;5080195;28;45449;-70
2022/07/12 04:02:17;;;;;;;;;7.33;7.33;;;;;22.16;50.68;101950.84;5078929;28;73453;-69
2022/07/12 04:04:43;;;;;;;;;8.00;7.67;;;;;22.13;50.62;101954.66;5079910;27;45309;-69
2022/07/12 04:07:08;;;;;;;;;9.00;8.00;;;;;22.11;50.48;101959.34;5079191;27;62216;-69
2022/07/12 04:09:34;;;;;;;;;6.00;6.00;;;;;22.09;50.51;101957.75;5080157;27;45456;-69
2022/07/12 04:11:59;;;;;;;;;6.67;6.00;;;;;22.09;50.69;101957.75;5079860;27;45396;-69
2022/07/12 04:14:24;;;;;;;;;7.00;7.00;;;;;22.06;50.85;101957.97;5080305;27;45464;-69
2022/07/12 04:16:50;;;;;;;;;7.00;7.00;;;;;22.04;50.18;101957.25;5079823;27;45381;-69
2022/07/12 04:19:15;;;;;;;;;5.67;5.67;;;;;22.03;50.74;101956.41;5079213;27;66907;-69
2022/07/12 04:21:41;;;;;;;;;5.67;5.67;;;;;22.03;50.94;101951.00;5079356;27;46178;-68
2022/07/12 04:24:06;;;;;;;;;6.00;6.00;;;;;22.03;50.49;101955.53;5082176;27;61304;-68
2022/07/12 04:26:31;;;;;;;;;7.00;5.00;;;;;22.04;50.68;101965.38;5082197;28;45378;-68
2022/07/12 04:28:57;;;;;;;;;6.67;6.33;;;;;22.06;50.43;101961.56;5083446;27;45397;-68
2022/07/12 04:31:23;;;;;;;;;5.00;5.00;;;;;22.03;50.79;101967.25;5082653;27;45679;-68
2022/07/12 04:33:48;;;;;;;;;6.67;5.00;;;;;22.02;50.87;101962.81;5083065;27;45415;-68
2022/07/12 04:36:13;;;;;;;;;6.33;5.67;;;;;22.02;51.11;101953.81;5082134;27;63445;-69
2022/07/12 04:38:39;;;;;;;;;7.33;7.33;;;;;22.00;51.18;101966.63;5082482;27;60737;-69
2022/07/12 04:41:04;;;;;;;;;6.00;6.00;;;;;22.00;50.77;101966.63;5082102;27;72415;-68
2022/07/12 04:43:29;;;;;;;;;5.67;5.67;;;;;21.98;51.10;101962.19;5082305;27;58636;-68
2022/07/12 04:45:55;;;;;;;;;6.67;6.67;;;;;21.98;51.10;101962.19;5082023;27;67129;-68
2022/07/12 04:48:20;;;;;;;;;7.00;5.67;;;;;21.99;51.09;101968.44;5082480;27;53232;-69
2022/07/12 04:50:45;;;;;;;;;6.00;6.00;;;;;22.00;51.08;101972.03;5080824;28;66938;-69
2022/07/12 04:53:11;;;;;;;;;9.00;6.00;;;;;22.00;50.87;101974.75;5081778;27;67139;-69
2022/07/12 04:55:36;;;;;;;;;6.00;6.00;;;;;22.02;51.63;101975.47;5082867;27;45393;-69
2022/07/12 04:58:04;;;;;;;;;4.33;4.33;;;;;22.03;51.45;101972.66;5082712;28;45476;-69
2022/07/12 05:00:30;;;;;;;;;7.00;6.00;;;;;22.06;51.16;101979.66;5081891;27;45472;-69
2022/07/12 05:02:55;;;;;;;;;11.00;5.00;;;;;22.08;51.82;101970.41;5082537;27;45397;-69
2022/07/12 05:05:20;;;;;;;;;6.67;6.67;;;;;22.12;51.94;101980.03;5082656;27;45377;-69
2022/07/12 05:07:45;;;;;;;;;5.00;4.00;;;;;22.14;51.15;101979.91;5082846;27;45304;-69
2022/07/12 05:10:11;;;;;;;;;4.33;3.00;;;;;22.16;50.98;101982.50;5081488;27;70348;-69
2022/07/12 05:12:37;;;;;;;;;7.67;5.00;;;;;22.19;51.05;101982.22;5082591;27;45391;-68
2022/07/12 05:15:03;;;;;;;;;7.33;4.33;;;;;22.23;51.79;101979.16;5082623;27;45415;-69
2022/07/12 05:17:29;;;;;;;;;4.00;4.00;;;;;22.28;51.07;101993.19;5082186;27;45754;-69
2022/07/12 05:19:55;;;;;;;;;4.67;4.67;;;;;22.30;51.33;101988.50;5082440;27;45981;-69
2022/07/12 05:22:20;;;;;;;;;6.00;6.00;;;;;22.32;51.60;101991.13;5076199;28;45479;-69
2022/07/12 05:24:46;;;;;;;;;6.00;4.00;;;;;22.31;51.46;101990.22;5075786;28;45476;-69
2022/07/12 05:27:11;;;;;;;;;5.00;4.67;;;;;22.36;51.41;101997.16;5072476;27;45427;-69
2022/07/12 05:29:36;;;;;;;;;9.67;6.33;;;;;22.39;51.30;101997.75;5073521;27;45525;-68
2022/07/12 05:32:02;;;;;;;;;6.00;4.67;;;;;22.46;51.53;102007.13;5071118;28;69644;-69
2022/07/12 05:34:27;;;;;;;;;5.00;3.67;;;;;22.52;51.10;102007.63;5078021;28;45467;-69
2022/07/12 05:36:53;;;;;;;;;6.33;5.67;;;;;22.54;50.77;102009.22;5071356;27;45396;-69
2022/07/12 05:39:19;;;;;;;;;5.33;4.67;;;;;22.56;50.67;102009.94;5073057;27;45827;-69
2022/07/12 05:41:44;;;;;;;;;5.00;5.00;;;;;22.61;50.66;102010.41;5071922;28;45796;-69
2022/07/12 05:44:10;;;;;;;;;5.33;4.67;;;;;22.63;51.30;102016.59;5074457;28;45442;-70
2022/07/12 05:46:36;;;;;;;;;5.00;4.00;;;;;22.66;51.24;102014.59;5054299;28;45643;-68
2022/07/12 05:49:02;;;;;;;;;4.33;4.33;;;;;22.72;50.58;102012.25;5072074;28;47039;-69
2022/07/12 05:54:11;;;;;;;;;4.00;4.00;;;;;22.79;49.92;102013.47;5073213;28;45553;-68
2022/07/12 05:56:37;;;;;;;;;5.00;5.00;;;;;22.78;50.45;102016.31;5071825;28;45467;-68
2022/07/12 05:59:02;;;;;;;;;9.00;5.33;;;;;22.78;50.30;102022.59;5078890;28;59007;-69
2022/07/12 06:01:27;;;;;;;;;5.67;5.00;;;;;22.77;50.40;102020.00;5072374;27;45494;-69
2022/07/12 06:03:53;;;;;;;;;4.33;4.33;;;;;22.78;50.13;102032.56;5072531;27;68210;-69
2022/07/12 06:06:19;;;;;;;;;4.00;4.00;;;;;22.80;50.49;102025.16;5090379;27;45442;-68
2022/07/12 06:08:44;;;;;;;;;4.50;4.50;;;;;22.85;50.09;102028.34;5071114;28;47765;-69
2022/07/12 06:11:10;;;;;;;;;6.00;6.00;;;;;22.93;50.40;102030.44;5076219;28;51990;-69
2022/07/12 06:13:35;;;;;;;;;5.00;5.00;;;;;23.01;49.74;102041.50;5079706;27;65471;-69
2022/07/12 06:16:00;;;;;;;;;6.00;6.00;;;;;23.06;50.32;102036.56;5073781;27;45688;-68
2022/07/12 06:18:26;;;;;;;;;6.00;5.00;;;;;23.09;49.62;102036.31;5079303;27;70511;-70
2022/07/12 06:20:51;;;;;;;;;4.33;4.00;;;;;23.16;49.92;102044.81;5079779;27;45681;-69
2022/07/12 06:23:17;;;;;;;;;4.33;4.33;;;;;23.21;49.73;102042.56;5080707;27;45495;-69
2022/07/12 06:25:43;;;;;;;;;5.67;5.67;;;;;23.25;49.88;102040.47;5080579;27;45505;-69
2022/07/12 06:28:08;;;;;;;;;6.00;4.67;;;;;23.26;49.52;102037.63;5080800;27;45489;-70
2022/07/12 06:30:34;;;;;;;;;6.00;6.00;;;;;23.28;49.29;102041.06;5080063;27;67970;-68
2022/07/12 06:32:59;;;;;;;;;5.00;5.00;;;;;23.29;49.37;102039.22;5080244;27;63864;-69
2022/07/12 06:35:24;;;;;;;;;8.00;7.00;;;;;23.38;49.29;102040.28;5080265;27;68897;-68
2022/07/12 06:37:50;;;;;;;;;7.33;7.00;;;;;23.46;49.48;102043.19;5081136;27;45499;-68
2022/07/12 06:40:16;;;;;;;;;6.00;6.00;;;;;23.52;49.12;102042.69;5081377;27;45430;-68
2022/07/12 06:42:42;;;;;;;;;6.67;5.33;;;;;23.55;48.76;102038.84;5080980;27;45476;-69
2022/07/12 06:45:09;;;;;;;;;6.33;5.00;;;;;23.60;49.07;102039.31;5080571;27;45357;-69
2022/07/12 06:47:34;;;;;;;;;5.00;5.00;;;;;23.64;48.57;102037.19;5080673;27;47162;-69
2022/07/12 06:50:00;;;;;;;;;5.33;5.33;;;;;23.71;48.40;102038.38;5080910;28;45604;-69
2022/07/12 06:52:25;;;;;;;;;6.00;6.00;;;;;23.78;48.59;102037.69;5081013;27;45705;-69
2022/07/12 06:54:50;;;;;;;;;4.67;4.00;;;;;23.87;48.36;102032.44;5080829;27;45354;-69
2022/07/12 06:57:16;;;;;;;;;7.00;5.33;;;;;23.99;48.25;102042.28;5080405;27;46137;-68
2022/07/12 06:59:41;;;;;;;;;4.00;4.00;;;;;24.14;47.77;102041.94;5080004;28;67666;-68
2022/07/12 07:02:06;;;;;;;;;5.00;5.00;;;;;24.28;47.68;102042.41;5079849;28;64849;-68
2022/07/12 07:04:32;;;;;;;;;5.33;4.33;;;;;24.45;47.49;102050.91;5079635;27;68443;-69
2022/07/12 07:06:58;;;;;;;;;5.67;5.67;;;;;24.66;46.97;102041.84;5080529;27;46500;-69
2022/07/12 07:09:23;;;;;;;;;7.00;7.00;;;;;24.85;46.38;102041.88;5080840;28;45407;-70
2022/07/12 07:11:48;;;;;;;;;5.67;5.67;;;;;25.05;45.99;102040.03;5080152;27;62172;-70
2022/07/12 07:14:14;;;;;;;;;5.67;5.67;;;;;25.26;45.58;102045.34;5080193;27;62651;-70
2022/07/12 07:16:39;;;;;;;;;8.00;8.00;;;;;25.46;44.50;102044.50;5080345;27;46022;-70
2022/07/12 07:19:05;;;;;;;;;6.67;6.67;;;;;25.62;44.58;102044.78;5079794;27;71247;-70
2022/07/12 07:21:31;;;;;;;;;5.00;3.33;;;;;25.83;44.19;102047.31;5080569;27;45311;-70
2022/07/12 07:23:57;;;;;;;;;5.33;5.33;;;;;26.02;43.46;102046.41;5080546;27;45431;-70
2022/07/12 07:26:22;;;;;;;;;5.67;5.67;;;;;26.28;43.75;102040.28;5080277;27;45501;-71
2022/07/12 07:31:35;;;;;;;;;5.00;4.33;;;;;26.85;42.18;102044.75;5080431;28;45460;-71
2022/07/12 07:34:01;;;;;;;;;4.00;4.00;;;;;27.14;42.41;102049.13;5080374;28;45283;-71
2022/07/12 07:36:28;;;;;;;;;7.33;6.33;;;;;27.41;41.11;102048.19;5080111;27;46065;-71
2022/07/12 07:38:53;;;;;;;;;3.00;3.00;;;;;27.70;40.90;102056.13;5080169;27;45563;-71
2022/07/12 07:41:19;;;;;;;;;10.00;7.00;;;;;28.08;41.31;102044.06;5079511;27;63605;-71
2022/07/12 07:43:44;;;;;;;;;3.00;1.00;;;;;28.43;38.72;102047.66;5079730;27;61618;-71
2022/07/12 07:46:09;;;;;;;;;7.00;5.33;;;;;28.82;38.30;102047.13;5080042;27;45411;-71
2022/07/12 07:48:35;;;;;;;;;4.67;3.67;;;;;29.19;38.39;102043.06;5079474;27;63635;-72
2022/07/12 07:51:00;;;;;;;;;5.33;2.67;;;;;29.59;37.84;102051.47;5079301;28;64586;-72
2022/07/12 07:53:26;;;;;;;;;4.00;4.00;;;;;30.03;35.21;102051.94;5079520;27;62043;-71
2022/07/12 07:55:51;;;;;;;;;5.33;5.33;;;;;30.46;35.35;102051.63;5078928;27;72965;-73
2022/07/12 07:58:16;;;;;;;;;6.67;5.00;;;;;30.96;34.65;102062.34;5078854;27;45428;-72
2022/07/12 08:00:42;;;;;;;;;8.00;6.33;;;;;31.46;33.42;102068.31;5079231;28;63888;-72
2022/07/12 08:03:07;;;;;;;;;4.33;4.00;;;;;32.08;33.19;102063.63;5079206;27;63233;-72
2022/07/12 08:05:33;;;;;;;;;6.33;6.33;;;;;32.68;32.40;102061.66;5078924;27;75651;-72
2022/07/12 08:07:58;;;;;;;;;8.67;6.00;;;;;33.25;31.92;102057.22;5078930;27;70501;-72
2022/07/12 08:10:25;;;;;;;;;6.00;6.00;;;;;33.65;31.19;102065.00;5079811;27;45357;-72
2022/07/12 08:12:50;;;;;;;;;5.33;5.33;;;;;34.01;30.56;102065.91;5080146;27;45299;-72
2022/07/12 08:15:15;;;;;;;;;4.67;4.67;;;;;34.43;29.24;102067.66;5079759;27;45401;-72
2022/07/12 08:17:41;;;;;;;;;6.00;6.00;;;;;34.78;28.67;102062.03;5078698;27;71087;-72
2022/07/12 08:20:07;;;;;;;;;6.00;6.00;;;;;35.15;28.09;102060.84;5079106;28;61817;-72
2022/07/12 08:22:32;;;;;;;;;3.00;3.00;;;;;35.57;27.25;102067.06;5079774;27;45334;-71
2022/07/12 08:24:58;;;;;;;;;3.67;3.67;;;;;36.03;28.13;102068.06;5078607;28;70467;-71
2022/07/12 08:27:23;;;;;;;;;4.00;4.00;;;;;36.66;27.36;102067.44;5079012;27;64386;-72
2022/07/12 08:29:49;;;;;;;;;5.00;5.00;;;;;37.21;26.59;102071.56;5079633;27;45323;-72
2022/07/12 08:32:15;;;;;;;;;5.00;5.00;;;;;37.68;26.20;102066.50;5079549;27;45456;-71
2022/07/12 08:34:41;;;;;;;;;8.50;4.00;;;;;38.18;24.69;102061.94;5079466;27;46096;-72
2022/07/12 08:37:06;;;;;;;;;3.50;3.50;;;;;38.65;23.48;102067.75;5079461;27;45394;-72
2022/07/12 08:39:31;;;;;;;;;2.50;1.50;;;;;39.08;23.80;102063.09;5078657;27;65936;-71
2022/07/12 08:41:56;;;;;;;;;7.00;6.00;;;;;39.31;22.90;102065.09;5078842;27;64572;-70
2022/07/12 08:44:22;;;;;;;;;4.00;3.67;;;;;39.49;22.61;102068.84;5078417;27;68253;-70
2022/07/12 08:46:47;;;;;;;;;3.50;2.00;;;;;39.77;21.93;102065.38;5078517;27;62346;-70
2022/07/12 08:49:13;;;;;;;;;4.00;4.00;;;;;39.96;20.14;102066.06;5079452;27;45226;-71
2022/07/12 08:51:38;;;;;;;;;5.33;4.00;;;;;40.19;22.14;102075.50;5078455;27;64163;-70
2022/07/12 08:54:08;;;;;;;;;5.00;4.00;;;;;40.30;20.28;102070.97;5079125;27;46244;-69
2022/07/12 08:56:38;;;;;;;;;3.00;3.00;;;;;40.30;20.59;102062.63;5079345;27;45418;-70
2022/07/12 08:59:14;;;;;;;;;3.67;3.00;;;;;40.67;20.65;102068.69;5079251;27;45333;-69
2022/07/12 09:02:00;;;;;;;;;3.33;3.33;;;;;41.15;19.75;102062.88;5078931;27;45370;-70
2022/07/12 09:04:30;;;;;;;;;4.67;4.67;;;;;41.46;20.17;102055.88;5077708;27;75342;-70
2022/07/12 09:06:55;;;;;;;;;4.67;3.00;;;;;41.70;18.54;102052.88;5078979;27;45381;-71
2022/07/12 09:09:29;;;;;;;;;6.00;6.00;;;;;41.60;18.84;102063.88;5081238;27;45404;-70
2022/07/12 09:11:54;;;;;;;;;3.00;2.00;;;;;41.53;19.71;102060.44;5082680;27;45327;-71
2022/07/12 09:14:20;;;;;;;;;3.00;3.00;;;;;41.86;18.84;102062.31;5082287;28;46363;-71
2022/07/12 09:16:58;;;;;;;;;3.00;3.00;;;;;41.99;18.82;102067.56;5082118;27;45429;-72
2022/07/12 09:19:23;;;;;;;;;5.33;3.67;;;;;42.02;18.29;102068.97;5082730;27;45307;-72
2022/07/12 09:21:54;;;;;;;;;1.67;1.67;;;;;41.95;18.88;102069.16;5082529;27;45462;-71
2022/07/12 09:24:20;;;;;;;;;3.33;3.00;;;;;42.09;18.08;102068.78;5082414;27;45719;-71
2022/07/12 09:26:46;;;;;;;;;2.00;2.00;;;;;42.45;18.34;102067.28;5082295;27;45447;-72
2022/07/12 09:29:13;;;;;;;;;1.67;1.67;;;;;42.75;17.42;102065.09;5082082;27;45482;-72
2022/07/12 09:37:17;;;;;;;;;1.67;1.67;;;;;43.34;17.54;102071.78;5081996;28;45435;-72
2022/07/12 09:39:43;;;;;;;;;1.00;1.00;;;;;43.30;16.01;102072.34;5081220;27;67264;-72
2022/07/12 09:42:10;;;;;;;;;4.67;4.67;;;;;43.42;15.83;102080.53;5082067;27;45399;-73
2022/07/12 09:44:36;;;;;;;;;2.67;2.00;;;;;43.56;15.99;102068.91;5081951;27;46959;-73
2022/07/12 09:47:01;;;;;;;;;2.00;2.00;;;;;43.77;15.67;102069.88;5081847;27;45370;-72
2022/07/12 09:49:27;;;;;;;;;0.00;0.00;;;;;43.70;14.23;102072.06;5082183;27;45405;-73
2022/07/12 09:51:56;;;;;;;;;1.00;1.00;;;;;43.67;14.19;102070.66;5082003;27;45499;-73
2022/07/12 09:54:27;;;;;;;;;2.00;2.00;;;;;43.83;15.01;102073.53;5082006;27;45422;-73
2022/07/12 09:56:58;;;;;;;;;3.00;2.00;;;;;43.99;15.48;102072.53;5081902;27;45401;-73
2022/07/12 09:59:27;;;;;;;;;1.67;1.67;;;;;44.25;14.95;102079.09;5081820;27;45439;-73
2022/07/12 10:01:55;;;;;;;;;2.00;2.00;;;;;44.38;13.45;102074.97;5081608;27;45365;-73
2022/07/12 10:04:22;;;;;;;;;2.00;2.00;;;;;44.30;13.39;102077.41;5081522;28;46254;-74
2022/07/12 10:06:47;;;;;;;;;1.00;1.00;;;;;44.30;14.13;102074.63;5081629;27;45712;-73
2022/07/12 10:09:14;;;;;;;;;2.67;1.33;;;;;44.50;13.47;102074.72;5081796;27;45418;-73
2022/07/12 10:11:40;;;;;;;;;5.00;3.33;;;;;44.69;12.90;102075.00;5081762;27;45460;-73
2022/07/12 10:14:06;;;;;;;;;2.00;2.00;;;;;44.79;14.63;102077.03;5080357;28;45413;-73
2022/07/12 10:16:34;;;;;;;;;1.00;1.00;;;;;44.97;12.57;102066.38;5079884;28;45362;-74
2022/07/12 10:19:35;;;;;;;;;5.67;5.67;;;;;45.20;13.46;102068.66;5081748;28;45465;-74
2022/07/12 10:22:03;;;;;;;;;3.00;3.00;;;;;45.60;13.51;102070.88;5080925;27;45564;-74
2022/07/12 10:24:31;;;;;;;;;1.33;1.33;;;;;45.61;13.65;102062.16;5081192;27;45495;-74
2022/07/12 10:27:02;;;;;;;;;4.00;2.33;;;;;45.53;12.50;102069.19;5081345;27;45351;-74
2022/07/12 10:29:27;;;;;;;;;5.00;5.00;;;;;45.60;13.06;102074.50;5079944;28;45529;-74
2022/07/12 10:31:52;;;;;;;;;3.00;3.00;;;;;45.83;13.24;102069.38;5079217;28;68521;-74
2022/07/12 10:34:23;;;;;;;;;1.33;1.33;;;;;46.08;13.54;102060.03;5080334;27;71272;-73
2022/07/12 10:36:54;;;;;;;;;3.67;3.00;;;;;46.07;12.72;102059.19;5081316;28;45384;-74
2022/07/12 10:39:21;;;;;;;;;8.00;7.67;;;;;46.03;11.64;102072.13;5081130;28;45402;-74
2022/07/12 10:42:07;;;;;;;;;2.67;2.67;;;;;45.84;12.51;102071.06;5081387;27;45365;-72
2022/07/12 10:44:40;;;;;;;;;3.00;3.00;;;;;46.05;11.69;102069.88;5080960;27;46197;-73
2022/07/12 10:47:07;;;;;;;;;1.33;1.33;;;;;46.33;11.83;102067.50;5080701;27;45491;-74
2022/07/12 10:49:34;;;;;;;;;1.00;1.00;;;;;46.49;12.77;102070.25;5081361;27;45489;-73
2022/07/12 10:52:11;;;;;;;;;2.67;2.00;;;;;46.49;11.12;102067.41;5081057;27;45359;-73
2022/07/12 10:54:39;;;;;;;;;3.00;3.00;;;;;46.44;11.82;102065.47;5081180;27;46408;-74
2022/07/12 10:57:05;;;;;;;;;1.33;1.33;;;;;46.55;11.37;102064.28;5080929;27;45400;-75
2022/07/12 10:59:34;;;;;;;;;0.67;0.67;;;;;46.65;11.18;102063.38;5081035;27;45499;-74
2022/07/12 11:02:00;;;;;;;;;1.00;1.00;;;;;46.79;11.63;102062.75;5080830;27;45220;-74
2022/07/12 11:04:25;;;;;;;;;2.33;2.33;;;;;46.77;11.54;102063.03;5080767;27;45432;-74
2022/07/12 11:06:55;;;;;;;;;1.67;1.67;;;;;46.96;11.65;102062.31;5079676;28;45407;-75
2022/07/12 11:09:21;;;;;;;;;0.00;0.00;;;;;47.33;10.74;102058.91;5080808;27;45370;-75
2022/07/12 11:11:51;;;;;;;;;1.67;1.67;;;;;47.35;10.28;102061.41;5080624;28;45262;-75
2022/07/12 11:14:23;;;;;;;;;2.00;2.00;;;;;47.25;11.28;102062.38;5080443;27;45363;-74
2022/07/12 11:16:51;;;;;;;;;2.33;2.00;;;;;47.41;10.92;102053.75;5080204;27;45282;-74
2022/07/12 11:19:23;;;;;;;;;1.33;1.33;;;;;47.79;10.78;102051.94;5080465;27;45311;-75
2022/07/12 11:21:56;;;;;;;;;3.00;3.00;;;;;48.03;10.69;102057.56;5080411;27;45365;-74
2022/07/12 11:24:23;;;;;;;;;2.00;2.00;;;;;48.47;10.73;102046.25;5080216;27;46055;-75
2022/07/12 11:26:50;;;;;;;;;1.00;1.00;;;;;48.52;9.03;102046.19;5080484;27;45365;-76
2022/07/12 11:29:16;;;;;;;;;2.67;2.67;;;;;47.86;9.98;102048.78;5080223;27;45450;-76
2022/07/12 11:31:41;;;;;;;;;7.00;4.00;;;;;47.36;10.27;102047.03;5080299;28;45330;-75